Time;durP1;ratioP1;P1;durP2;ratioP2;P2;SDS_P1;SDS_P2;PMS_P1;PMS_P2;Temp;Humidity;BMP_temperature;BMP_pressure;BME280_temperature;BME280_humidity;BME280_pressure;Samples;Min_cycle;Max_cycle;Signal;HPM_P1;HPM_P2
2023/01/18 00:00:16;;;;;;;15.80;10.18;;;-0.60;99.90;;;;;;5105492;28;20105;-69
2023/01/18 00:02:45;;;;;;;12.77;9.43;;;-0.60;99.90;;;;;;5103548;28;20039;-69
2023/01/18 00:05:12;;;;;;;13.20;10.35;;;-0.60;99.90;;;;;;5098555;28;20043;-69
2023/01/18 00:07:38;;;;;;;14.13;10.48;;;-0.60;99.90;;;;;;5099691;28;20575;-70
2023/01/18 00:10:04;;;;;;;12.90;10.23;;;-0.60;99.90;;;;;;5090076;28;20052;-70
2023/01/18 00:12:31;;;;;;;14.10;10.75;;;-0.60;99.90;;;;;;5108066;28;20404;-69
2023/01/18 00:14:57;;;;;;;15.30;10.02;;;-0.60;99.90;;;;;;5109519;28;20031;-69
2023/01/18 00:17:23;;;;;;;15.13;11.02;;;-0.60;99.90;;;;;;5103037;28;20051;-69
2023/01/18 00:19:48;;;;;;;20.35;11.88;;;-0.60;99.90;;;;;;5109371;28;20048;-69
2023/01/18 00:22:14;;;;;;;13.48;11.10;;;-0.70;99.90;;;;;;5107407;28;20051;-69
2023/01/18 00:24:39;;;;;;;13.00;11.07;;;-0.70;99.90;;;;;;5108886;28;20468;-69
2023/01/18 00:27:09;;;;;;;19.88;12.70;;;-0.70;99.90;;;;;;5097930;28;20086;-69
2023/01/18 00:29:35;;;;;;;13.68;10.90;;;-0.70;99.90;;;;;;5110059;28;20493;-69
2023/01/18 00:32:00;;;;;;;15.90;11.25;;;-0.70;99.90;;;;;;5093810;28;20043;-68
2023/01/18 00:34:26;;;;;;;14.60;11.63;;;-0.70;99.90;;;;;;5100423;28;20056;-69
2023/01/18 00:36:52;;;;;;;12.55;11.25;;;-0.70;99.90;;;;;;5102271;28;20047;-69
2023/01/18 00:39:17;;;;;;;13.77;11.45;;;-0.70;99.90;;;;;;5103660;28;20388;-69
2023/01/18 00:43:37;;;;;;;11.85;10.65;;;-0.70;99.90;;;;;;5110395;28;20043;-69
2023/01/18 00:44:28;;;;;;;15.15;10.88;;;-0.70;99.90;;;;;;5109759;28;20138;-69
2023/01/18 00:46:54;;;;;;;13.90;11.60;;;-0.70;99.90;;;;;;5110143;28;20556;-68
2023/01/18 00:49:21;;;;;;;14.30;11.63;;;-0.70;99.90;;;;;;5094566;28;20751;-69
2023/01/18 00:51:47;;;;;;;13.18;11.75;;;-0.80;99.90;;;;;;5109263;28;20092;-70
2023/01/18 00:54:12;;;;;;;18.02;11.77;;;-0.80;99.90;;;;;;5083747;28;20678;-69
2023/01/18 00:56:38;;;;;;;3.70;2.58;;;-0.80;99.90;;;;;;5101497;28;20044;-68
2023/01/18 00:59:04;;;;;;;14.88;12.55;;;-0.80;99.90;;;;;;5107684;28;20523;-69
2023/01/18 01:01:29;;;;;;;17.30;11.23;;;-0.80;99.90;;;;;;5107453;28;20050;-68
2023/01/18 01:06:43;;;;;;;25.27;11.93;;;-0.80;99.90;;;;;;5098601;28;20050;-69
2023/01/18 01:09:19;;;;;;;18.45;12.73;;;-0.80;99.90;;;;;;5105253;28;20070;-68
2023/01/18 01:28:13;;;;;;;14.80;13.23;;;-0.90;99.90;;;;;;5104664;28;20048;-68
2023/01/18 01:30:39;;;;;;;14.88;12.70;;;-0.90;99.90;;;;;;5106710;28;20050;-68
2023/01/18 01:33:05;;;;;;;17.55;14.10;;;-0.90;99.90;;;;;;5090357;28;20049;-68
2023/01/18 01:35:30;;;;;;;16.73;13.32;;;-0.90;99.90;;;;;;5102097;28;20116;-68
2023/01/18 01:37:56;;;;;;;18.52;14.50;;;-0.90;99.90;;;;;;5109304;28;20050;-68
2023/01/18 01:40:23;;;;;;;16.48;14.23;;;-0.90;99.90;;;;;;5107009;28;20412;-68
2023/01/18 01:42:49;;;;;;;16.40;13.48;;;-0.90;99.90;;;;;;5108918;28;20055;-68
2023/01/18 01:45:17;;;;;;;18.33;14.48;;;-1.00;99.90;;;;;;5101107;28;20062;-68
2023/01/18 01:47:46;;;;;;;17.55;14.43;;;-1.00;99.90;;;;;;5108207;28;20088;-68
2023/01/18 01:50:23;;;;;;;14.55;13.07;;;-1.00;99.90;;;;;;5107067;28;20079;-68
2023/01/18 01:52:49;;;;;;;17.95;14.05;;;-1.00;99.90;;;;;;5108158;28;20043;-68
2023/01/18 01:55:21;;;;;;;23.88;14.05;;;-1.00;99.90;;;;;;5095415;28;20420;-68
2023/01/18 01:58:15;;;;;;;20.15;14.82;;;-1.00;99.90;;;;;;5108495;27;20050;-68
2023/01/18 02:00:41;;;;;;;17.77;13.65;;;-1.00;99.90;;;;;;5104282;28;20048;-68
2023/01/18 02:03:11;;;;;;;21.65;14.65;;;-1.00;99.90;;;;;;5095387;28;20050;-68
2023/01/18 02:05:44;;;;;;;15.25;13.07;;;-1.00;99.90;;;;;;5107048;28;20134;-68
2023/01/18 02:08:11;;;;;;;5.88;2.90;;;-1.00;99.90;;;;;;5090941;28;20071;-68
2023/01/18 02:10:37;;;;;;;20.15;15.65;;;-1.00;99.90;;;;;;5098003;28;20051;-68
2023/01/18 02:13:09;;;;;;;20.40;14.43;;;-1.00;99.90;;;;;;5095614;28;20051;-68
2023/01/18 02:15:58;;;;;;;17.52;14.35;;;-1.00;99.90;;;;;;5106400;28;20040;-68
2023/01/18 02:18:54;;;;;;;20.65;15.38;;;-1.00;99.90;;;;;;5096273;28;20517;-68
2023/01/18 02:21:32;;;;;;;16.60;14.60;;;-1.00;99.90;;;;;;5089088;28;20051;-68
2023/01/18 02:24:27;;;;;;;27.83;17.50;;;-1.00;99.90;;;;;;5097539;28;20044;-68
2023/01/18 02:27:11;;;;;;;19.98;15.43;;;-1.10;99.90;;;;;;5029931;28;20053;-68
2023/01/18 02:29:39;;;;;;;23.13;16.63;;;-1.10;99.90;;;;;;5101939;28;20047;-67
2023/01/18 02:32:38;;;;;;;18.70;15.80;;;-1.10;99.90;;;;;;5107334;28;20051;-68
2023/01/18 02:35:16;;;;;;;18.35;15.65;;;-1.10;99.90;;;;;;5065514;28;20124;-67
2023/01/18 02:38:04;;;;;;;18.20;16.10;;;-1.10;99.90;;;;;;5056881;28;20051;-67
2023/01/18 02:40:47;;;;;;;27.98;16.95;;;-1.10;99.90;;;;;;5059907;28;20453;-67
2023/01/18 02:48:48;;;;;;;27.42;18.08;;;-1.20;99.90;;;;;;5066305;28;20083;-67
2023/01/18 02:51:14;;;;;;;22.95;17.05;;;-1.20;99.90;;;;;;5061292;28;20485;-68
2023/01/18 02:53:42;;;;;;;22.25;17.20;;;-1.20;99.90;;;;;;5060970;28;20056;-67
2023/01/18 02:56:27;;;;;;;20.25;17.00;;;-1.20;99.90;;;;;;5051896;28;20055;-67
2023/01/18 02:59:14;;;;;;;26.75;17.23;;;-1.30;99.90;;;;;;5059735;28;20402;-67
2023/01/18 03:01:45;;;;;;;21.48;17.85;;;-1.30;99.90;;;;;;5054199;28;20037;-68
2023/01/18 03:04:37;;;;;;;21.23;17.55;;;-1.30;99.90;;;;;;5063617;28;20053;-67
2023/01/18 03:07:17;;;;;;;24.67;17.98;;;-1.30;99.90;;;;;;5057567;28;20066;-68
2023/01/18 03:09:44;;;;;;;25.73;17.73;;;-1.30;99.90;;;;;;5052809;28;20116;-67
2023/01/18 03:12:19;;;;;;;21.95;18.42;;;-1.30;99.90;;;;;;5051468;28;20058;-68
2023/01/18 03:15:11;;;;;;;27.65;20.00;;;-1.30;99.90;;;;;;5059039;28;20406;-68
2023/01/18 03:17:59;;;;;;;22.73;19.17;;;-1.30;99.90;;;;;;5052612;28;20444;-67
2023/01/18 03:20:30;;;;;;;26.20;19.58;;;-1.30;99.90;;;;;;5055715;28;20032;-67
2023/01/18 03:25:49;;;;;;;23.00;18.88;;;-1.40;99.90;;;;;;5066357;28;20163;-67
2023/01/18 03:34:13;;;;;;;5.93;4.70;;;-1.40;99.90;;;;;;5081970;28;20513;-67
2023/01/18 03:36:46;;;;;;;3.88;3.58;;;-1.50;99.90;;;;;;5101588;28;20079;-67
2023/01/18 03:39:27;;;;;;;23.92;19.95;;;-1.50;99.90;;;;;;5099473;28;20048;-67
2023/01/18 03:42:01;;;;;;;29.42;20.75;;;-1.50;99.90;;;;;;5104585;28;20066;-67
2023/01/18 03:44:51;;;;;;;30.15;20.13;;;-1.40;99.90;;;;;;5091585;28;20048;-67
2023/01/18 03:47:17;;;;;;;34.17;21.58;;;-1.50;99.90;;;;;;5098702;28;20395;-67
2023/01/18 03:49:43;;;;;;;29.75;22.60;;;-1.50;99.90;;;;;;5100712;28;20043;-67
2023/01/18 03:52:36;;;;;;;30.13;20.30;;;-1.50;99.90;;;;;;5108117;28;20055;-67
2023/01/18 03:55:12;;;;;;;23.90;20.13;;;-1.50;99.90;;;;;;5101891;28;20055;-67
2023/01/18 03:57:51;;;;;;;7.40;5.00;;;-1.50;99.90;;;;;;5092172;28;20595;-68
2023/01/18 04:00:18;;;;;;;28.70;19.60;;;-1.50;99.90;;;;;;5098118;28;20058;-67
2023/01/18 04:02:45;;;;;;;10.32;7.38;;;-1.60;99.90;;;;;;5096801;28;20066;-68
2023/01/18 04:05:12;;;;;;;23.95;19.48;;;-1.50;99.90;;;;;;5110736;28;20157;-68
2023/01/18 04:07:37;;;;;;;36.17;20.13;;;-1.50;99.90;;;;;;5105463;27;20145;-67
2023/01/18 04:10:03;;;;;;;26.83;20.92;;;-1.50;99.90;;;;;;5103780;28;20515;-67
2023/01/18 04:12:30;;;;;;;25.73;21.15;;;-1.50;99.90;;;;;;5106249;28;20066;-67
2023/01/18 04:14:56;;;;;;;25.55;21.15;;;-1.50;99.90;;;;;;5099833;28;20771;-67
2023/01/18 04:17:22;;;;;;;29.80;22.20;;;-1.50;99.90;;;;;;5109285;28;20047;-67
2023/01/18 04:19:48;;;;;;;24.60;21.15;;;-1.50;99.90;;;;;;5099484;28;20043;-68
2023/01/18 04:22:14;;;;;;;26.48;21.05;;;-1.50;99.90;;;;;;5097698;28;20040;-67
2023/01/18 04:24:40;;;;;;;8.05;5.32;;;-1.50;99.90;;;;;;5108838;28;20390;-68
2023/01/18 04:27:05;;;;;;;26.08;21.38;;;-1.50;99.90;;;;;;5103532;28;20027;-67
2023/01/18 04:29:31;;;;;;;30.60;22.85;;;-1.50;99.90;;;;;;5093331;28;20405;-68
2023/01/18 04:31:57;;;;;;;25.02;22.15;;;-1.50;99.90;;;;;;5098095;28;20119;-67
2023/01/18 04:34:22;;;;;;;31.88;21.33;;;-1.50;99.90;;;;;;5103063;28;20059;-68
2023/01/18 04:36:49;;;;;;;23.52;21.02;;;-1.50;99.90;;;;;;5109581;28;20097;-67
2023/01/18 04:39:15;;;;;;;26.27;21.27;;;-1.40;99.90;;;;;;5110637;28;20043;-68
2023/01/18 04:41:41;;;;;;;30.27;22.83;;;-1.40;99.90;;;;;;5107581;28;20055;-68
2023/01/18 04:44:07;;;;;;;26.08;21.20;;;-1.40;99.90;;;;;;5104020;28;20114;-68
2023/01/18 04:46:33;;;;;;;6.28;3.13;;;-1.40;99.90;;;;;;5109929;28;20035;-68
2023/01/18 04:48:59;;;;;;;21.33;18.95;;;-1.50;99.90;;;;;;5108590;28;20051;-68
2023/01/18 04:51:26;;;;;;;30.15;20.25;;;-1.50;99.90;;;;;;5109011;28;20466;-68
2023/01/18 04:53:52;;;;;;;24.35;19.08;;;-1.50;99.90;;;;;;5109389;28;20093;-68
2023/01/18 04:56:18;;;;;;;8.60;5.53;;;-1.50;99.90;;;;;;5108584;28;20044;-67
2023/01/18 04:58:44;;;;;;;25.92;18.98;;;-1.50;99.90;;;;;;5100342;28;20515;-68
2023/01/18 05:01:13;;;;;;;28.23;19.10;;;-1.50;99.90;;;;;;5109207;28;20122;-67
2023/01/18 05:03:39;;;;;;;41.47;19.80;;;-1.50;99.90;;;;;;5109236;28;20039;-67
2023/01/18 05:06:11;;;;;;;25.23;20.02;;;-1.50;99.90;;;;;;5096711;28;20040;-68
2023/01/18 05:08:39;;;;;;;10.65;3.83;;;-1.50;99.90;;;;;;5109694;28;20035;-68
2023/01/18 05:11:06;;;;;;;;;;;-1.50;99.90;;;;;;5109200;28;20043;-68
2023/01/18 05:13:32;;;;;;;6.93;3.85;;;-1.50;99.90;;;;;;5106092;28;20372;-68
2023/01/18 05:15:59;;;;;;;22.00;19.67;;;-1.50;99.90;;;;;;5100179;28;20097;-67
2023/01/18 05:18:25;;;;;;;25.65;19.70;;;-1.50;99.90;;;;;;5109036;28;20131;-68
2023/01/18 05:20:51;;;;;;;22.33;17.65;;;-1.50;99.90;;;;;;5098824;28;20039;-68
2023/01/18 05:23:17;;;;;;;22.63;18.77;;;-1.50;99.90;;;;;;5103411;28;20069;-68
2023/01/18 05:25:43;;;;;;;26.20;18.80;;;-1.40;99.90;;;;;;5088781;28;20584;-68
2023/01/18 05:28:09;;;;;;;21.83;19.45;;;-1.50;99.90;;;;;;5088446;28;20135;-68
2023/01/18 05:30:41;;;;;;;21.88;18.55;;;-1.50;99.90;;;;;;5103144;28;20050;-67
2023/01/18 05:33:08;;;;;;;21.92;19.52;;;-1.40;99.90;;;;;;5102985;28;20662;-68
2023/01/18 05:35:34;;;;;;;30.92;21.17;;;-1.50;99.90;;;;;;5098063;28;20052;-68
2023/01/18 05:38:00;;;;;;;37.25;20.77;;;-1.40;99.90;;;;;;5108649;28;20059;-67
2023/01/18 05:40:26;;;;;;;24.05;19.80;;;-1.40;99.90;;;;;;5109306;28;20571;-67
2023/01/18 05:42:52;;;;;;;4.45;3.72;;;-1.40;99.90;;;;;;5107701;28;20043;-68
2023/01/18 05:45:19;;;;;;;26.83;20.52;;;-1.40;99.90;;;;;;5090846;28;20048;-67
2023/01/18 05:47:45;;;;;;;27.95;21.95;;;-1.50;99.90;;;;;;5104251;28;20047;-68
2023/01/18 05:50:11;;;;;;;29.10;21.67;;;-1.50;99.90;;;;;;5102940;28;20044;-67
2023/01/18 05:52:36;;;;;;;4.60;3.63;;;-1.50;99.90;;;;;;5102041;28;20341;-67
2023/01/18 05:55:03;;;;;;;31.08;22.50;;;-1.50;99.90;;;;;;5107618;28;20450;-68
2023/01/18 05:57:29;;;;;;;27.52;21.33;;;-1.50;99.90;;;;;;5108074;28;20154;-67
2023/01/18 05:59:54;;;;;;;31.98;22.08;;;-1.50;99.90;;;;;;5107396;28;20467;-68
2023/01/18 06:02:20;;;;;;;26.73;21.77;;;-1.50;99.90;;;;;;5104127;28;20038;-68
2023/01/18 06:04:46;;;;;;;24.42;20.65;;;-1.40;99.90;;;;;;5097647;28;20835;-67
2023/01/18 06:07:13;;;;;;;25.42;21.55;;;-1.50;99.90;;;;;;5100633;28;20046;-68
2023/01/18 06:09:39;;;;;;;23.98;21.20;;;-1.50;99.90;;;;;;5107319;28;20397;-68
2023/01/18 06:12:06;;;;;;;27.42;20.95;;;-1.40;99.90;;;;;;5108404;28;20042;-68
2023/01/18 06:14:32;;;;;;;31.48;22.42;;;-1.40;99.90;;;;;;5108940;28;20078;-68
2023/01/18 06:16:58;;;;;;;33.95;21.58;;;-1.40;99.90;;;;;;5106253;28;20079;-68
2023/01/18 06:19:23;;;;;;;28.02;21.95;;;-1.40;99.90;;;;;;5091837;28;20082;-68
2023/01/18 06:21:49;;;;;;;32.42;23.27;;;-1.40;99.90;;;;;;5093734;28;20040;-68
2023/01/18 06:24:14;;;;;;;25.83;21.23;;;-1.40;99.90;;;;;;5100515;28;20051;-68
2023/01/18 06:26:40;;;;;;;30.77;22.67;;;-1.40;99.90;;;;;;5104128;28;20466;-68
2023/01/18 06:29:06;;;;;;;32.90;21.23;;;-1.40;99.90;;;;;;5106204;28;20620;-68
2023/01/18 06:31:31;;;;;;;33.33;22.17;;;-1.40;99.90;;;;;;5098735;28;20072;-68
2023/01/18 06:33:57;;;;;;;29.30;21.80;;;-1.40;99.90;;;;;;5089462;28;20553;-68
2023/01/18 06:36:23;;;;;;;29.05;22.73;;;-1.40;99.90;;;;;;5102666;28;20066;-68
2023/01/18 06:38:48;;;;;;;8.05;6.10;;;-1.40;99.90;;;;;;5092138;28;20127;-68
2023/01/18 06:41:15;;;;;;;29.75;22.27;;;-1.40;99.90;;;;;;5099962;28;20142;-68
2023/01/18 06:43:41;;;;;;;23.90;21.02;;;-1.40;99.90;;;;;;5088175;28;20044;-69
2023/01/18 06:46:08;;;;;;;6.50;4.82;;;-1.40;99.90;;;;;;5089257;28;20428;-68
2023/01/18 06:48:35;;;;;;;21.05;9.00;;;-1.50;99.90;;;;;;5107913;28;20522;-68
2023/01/18 06:51:00;;;;;;;30.50;23.40;;;-1.50;99.90;;;;;;5107628;28;20046;-68
2023/01/18 06:53:26;;;;;;;31.88;22.35;;;-1.50;99.90;;;;;;5106883;28;20055;-69
2023/01/18 06:56:00;;;;;;;25.83;20.92;;;-1.50;99.90;;;;;;5094428;28;20524;-68
2023/01/18 06:58:28;;;;;;;29.80;20.67;;;-1.50;99.90;;;;;;5086536;28;20052;-68
2023/01/18 07:00:59;;;;;;;27.60;20.80;;;-1.40;99.90;;;;;;5090381;28;20059;-68
2023/01/18 07:03:26;;;;;;;29.80;21.55;;;-1.40;99.90;;;;;;5086793;28;20489;-68
2023/01/18 07:05:53;;;;;;;30.15;21.90;;;-1.40;99.90;;;;;;5106888;28;20035;-69
2023/01/18 07:08:19;;;;;;;27.20;20.20;;;-1.40;99.90;;;;;;5107722;28;20062;-68
2023/01/18 07:10:51;;;;;;;27.17;20.90;;;-1.40;99.90;;;;;;5101928;28;20051;-68
2023/01/18 07:13:17;;;;;;;26.52;20.70;;;-1.40;99.90;;;;;;5094207;28;20071;-68
2023/01/18 07:15:42;;;;;;;26.42;20.92;;;-1.50;99.90;;;;;;5104911;28;20500;-68
2023/01/18 07:18:08;;;;;;;30.88;19.85;;;-1.50;99.90;;;;;;5107278;28;20475;-68
2023/01/18 07:20:34;;;;;;;28.17;20.05;;;-1.50;99.90;;;;;;5085353;28;20382;-68
2023/01/18 07:23:00;;;;;;;25.67;20.05;;;-1.50;99.90;;;;;;5103874;28;20523;-68
2023/01/18 07:25:26;;;;;;;24.45;20.10;;;-1.50;99.90;;;;;;5106152;28;20865;-69
2023/01/18 07:27:52;;;;;;;24.35;20.58;;;-1.50;99.90;;;;;;5105594;28;20055;-69
2023/01/18 07:30:18;;;;;;;27.10;20.27;;;-1.60;99.90;;;;;;5102012;28;20043;-68
2023/01/18 07:32:51;;;;;;;15.45;6.00;;;-1.60;99.90;;;;;;5104097;28;20408;-69
2023/01/18 07:35:20;;;;;;;5.05;4.10;;;-1.60;99.90;;;;;;5100003;28;20193;-69
2023/01/18 07:37:52;;;;;;;23.05;19.88;;;-1.60;99.90;;;;;;5104480;28;20084;-69
2023/01/18 07:40:21;;;;;;;29.30;20.45;;;-1.60;99.90;;;;;;5105632;28;20090;-69
2023/01/18 07:42:47;;;;;;;27.60;21.13;;;-1.60;99.90;;;;;;5106098;28;20047;-69
2023/01/18 07:45:13;;;;;;;6.43;4.28;;;-1.60;99.90;;;;;;5104119;28;20177;-69
2023/01/18 07:47:40;;;;;;;22.88;19.10;;;-1.60;99.90;;;;;;5104320;28;20134;-69
2023/01/18 07:50:06;;;;;;;23.85;21.20;;;-1.60;99.90;;;;;;5091716;28;20054;-69
2023/01/18 07:52:32;;;;;;;28.95;21.85;;;-1.60;99.90;;;;;;5099062;28;20058;-69
2023/01/18 07:54:58;;;;;;;27.65;22.77;;;-1.60;99.90;;;;;;5086221;28;20393;-69
2023/01/18 07:57:24;;;;;;;27.23;21.10;;;-1.60;99.90;;;;;;5096292;28;20592;-69
2023/01/18 07:59:50;;;;;;;30.02;23.33;;;-1.60;99.90;;;;;;5104042;28;20055;-69
2023/01/18 08:02:16;;;;;;;31.77;23.17;;;-1.60;99.90;;;;;;5102439;28;20048;-68
2023/01/18 08:04:42;;;;;;;39.55;24.30;;;-1.60;99.90;;;;;;5100084;28;20035;-69
2023/01/18 08:07:08;;;;;;;32.22;23.92;;;-1.60;99.90;;;;;;5088384;28;20110;-70
2023/01/18 08:09:33;;;;;;;32.45;24.95;;;-1.60;99.90;;;;;;5086284;28;20105;-69
2023/01/18 08:12:00;;;;;;;34.30;24.80;;;-1.60;99.90;;;;;;5086043;28;20047;-69
2023/01/18 08:14:25;;;;;;;34.42;23.90;;;-1.60;99.90;;;;;;5086086;28;20982;-70
2023/01/18 08:16:51;;;;;;;7.88;5.10;;;-1.60;99.90;;;;;;5084087;28;20090;-70
2023/01/18 08:19:17;;;;;;;32.70;23.52;;;-1.60;99.90;;;;;;5114481;27;20111;-70
2023/01/18 08:21:43;;;;;;;32.75;25.40;;;-1.50;99.90;;;;;;5096826;28;20043;-70
2023/01/18 08:24:09;;;;;;;29.60;24.77;;;-1.50;99.90;;;;;;5092162;28;20459;-70
2023/01/18 08:26:34;;;;;;;29.85;23.45;;;-1.50;99.90;;;;;;5100783;28;20097;-70
2023/01/18 08:29:00;;;;;;;32.60;26.17;;;-1.50;99.90;;;;;;5091892;28;20471;-70
2023/01/18 08:31:27;;;;;;;30.77;25.00;;;-1.50;99.90;;;;;;5098887;28;20044;-70
2023/01/18 08:33:53;;;;;;;31.35;23.15;;;-1.50;99.90;;;;;;5093075;28;20083;-69
2023/01/18 08:36:21;;;;;;;36.67;25.50;;;-1.40;99.90;;;;;;5089545;28;20126;-70
2023/01/18 08:38:58;;;;;;;35.50;28.67;;;-1.40;99.90;;;;;;5092336;28;20036;-70
2023/01/18 08:41:27;;;;;;;37.45;29.40;;;-1.40;99.90;;;;;;5106928;28;20047;-70
2023/01/18 08:43:54;;;;;;;39.42;29.85;;;-1.40;99.90;;;;;;5093532;28;20112;-70
2023/01/18 08:46:20;;;;;;;42.97;31.67;;;-1.40;99.90;;;;;;5090575;28;20123;-70
2023/01/18 08:48:54;;;;;;;32.75;26.00;;;-1.30;99.90;;;;;;5087916;28;20087;-70
2023/01/18 08:51:21;;;;;;;36.60;25.70;;;-1.30;99.90;;;;;;5102669;28;20135;-70
2023/01/18 08:53:50;;;;;;;32.53;26.77;;;-1.20;99.90;;;;;;5100275;28;20060;-70
2023/01/18 08:56:16;;;;;;;;;;;-1.20;99.90;;;;;;5098688;28;20217;-70
2023/01/18 08:58:42;;;;;;;35.75;25.58;;;-1.20;99.90;;;;;;5106093;28;20394;-70
2023/01/18 09:01:09;;;;;;;35.00;26.33;;;-1.20;99.90;;;;;;5102545;28;20052;-71
2023/01/18 09:03:36;;;;;;;31.05;25.00;;;-1.20;99.90;;;;;;5098077;28;20424;-71
2023/01/18 09:06:04;;;;;;;32.88;25.50;;;-1.10;99.90;;;;;;5100779;28;20039;-70
2023/01/18 09:08:30;;;;;;;32.80;25.90;;;-1.00;99.90;;;;;;5099369;28;20083;-70
2023/01/18 09:11:09;;;;;;;30.75;26.40;;;-1.00;99.90;;;;;;5091327;28;20054;-71
2023/01/18 09:13:35;;;;;;;27.48;24.02;;;-0.90;99.90;;;;;;5096887;28;20036;-70
2023/01/18 09:16:03;;;;;;;35.90;26.25;;;-0.90;99.90;;;;;;5088375;28;20044;-70
2023/01/18 09:18:29;;;;;;;7.45;5.75;;;-0.90;99.90;;;;;;5095677;28;20503;-71
2023/01/18 09:20:56;;;;;;;8.30;6.68;;;-0.80;99.90;;;;;;5099174;28;20068;-71
2023/01/18 09:23:22;;;;;;;40.50;25.33;;;-0.80;99.90;;;;;;5099941;28;20048;-71
2023/01/18 09:25:58;;;;;;;31.23;26.25;;;-0.70;99.90;;;;;;5096745;28;20055;-71
2023/01/18 09:28:24;;;;;;;35.35;24.92;;;-0.70;99.90;;;;;;5099666;28;20040;-70
2023/01/18 09:30:49;;;;;;;28.38;24.35;;;-0.60;99.90;;;;;;5106173;28;20047;-70
2023/01/18 09:33:15;;;;;;;29.30;24.80;;;-0.60;99.90;;;;;;5103696;28;20056;-69
2023/01/18 09:35:41;;;;;;;35.42;25.23;;;-0.50;99.90;;;;;;5092181;28;20079;-69
2023/01/18 09:38:08;;;;;;;29.88;25.08;;;-0.50;99.90;;;;;;5102359;28;20044;-69
2023/01/18 09:40:44;;;;;;;35.50;27.05;;;-0.40;99.90;;;;;;5108979;28;20534;-68
2023/01/18 09:43:29;;;;;;;18.17;7.60;;;-0.40;99.90;;;;;;5100042;28;20047;-68
2023/01/18 09:45:55;;;;;;;33.42;25.63;;;-0.30;99.90;;;;;;5102966;28;20115;-68
2023/01/18 09:49:01;;;;;;;32.75;24.50;;;-0.30;99.90;;;;;;5094102;28;20122;-68
2023/01/18 09:51:29;;;;;;;30.77;24.35;;;-0.20;99.90;;;;;;5090237;28;20048;-68
2023/01/18 09:54:07;;;;;;;;;;;-0.10;99.90;;;;;;5105359;28;20104;-67
2023/01/18 09:56:45;;;;;;;45.20;25.63;;;-0.10;99.90;;;;;;5105877;28;19924;-68
2023/01/18 09:59:32;;;;;;;26.67;23.00;;;0.00;99.90;;;;;;5105138;28;20031;-67
2023/01/18 10:02:02;;;;;;;27.23;21.98;;;0.10;99.90;;;;;;5104164;28;20043;-68
2023/01/18 10:04:38;;;;;;;29.52;22.80;;;0.20;99.90;;;;;;5092698;28;20044;-68
2023/01/18 10:07:11;;;;;;;25.38;22.35;;;0.30;99.90;;;;;;5091085;28;20122;-68
2023/01/18 10:09:50;;;;;;;8.95;7.15;;;0.40;99.90;;;;;;5098903;28;20047;-67
2023/01/18 10:12:25;;;;;;;;;;;0.60;99.90;;;;;;5093229;28;20420;-68
2023/01/18 10:15:01;;;;;;;31.55;22.63;;;0.60;99.90;;;;;;5100701;28;20003;-68
2023/01/18 10:17:37;;;;;;;10.00;6.32;;;0.80;99.90;;;;;;5102034;28;20051;-68
2023/01/18 10:20:32;;;;;;;22.98;20.23;;;0.90;99.90;;;;;;5097360;28;20046;-68
2023/01/18 10:23:05;;;;;;;25.95;19.42;;;1.00;99.90;;;;;;5060805;28;20056;-68
2023/01/18 10:25:45;;;;;;;29.15;20.67;;;1.20;99.90;;;;;;5105116;28;20040;-68
2023/01/18 10:28:32;;;;;;;26.55;20.42;;;1.30;99.90;;;;;;5106517;28;20050;-68
2023/01/18 10:31:28;;;;;;;24.05;18.77;;;1.40;99.90;;;;;;5085947;28;20051;-68
2023/01/18 10:33:57;;;;;;;30.95;20.52;;;1.50;99.90;;;;;;5095588;28;20052;-68
2023/01/18 10:36:38;;;;;;;23.00;19.10;;;1.60;99.90;;;;;;5098752;28;20050;-68
2023/01/18 10:39:26;;;;;;;23.83;19.13;;;1.70;99.90;;;;;;5095188;28;20043;-69
2023/01/18 10:41:57;;;;;;;22.00;18.27;;;1.70;99.90;;;;;;5105039;28;20044;-68
2023/01/18 10:44:22;;;;;;;22.52;17.73;;;1.80;99.90;;;;;;5103287;28;20138;-68
2023/01/18 10:46:48;;;;;;;23.50;17.30;;;2.00;99.90;;;;;;5103605;28;20126;-68
2023/01/18 10:49:34;;;;;;;19.08;15.43;;;2.00;99.90;;;;;;5105017;28;20051;-68
2023/01/18 10:52:30;;;;;;;21.35;17.48;;;2.10;99.90;;;;;;5095777;28;20150;-68
2023/01/18 10:55:02;;;;;;;19.45;16.85;;;2.20;99.90;;;;;;5100658;28;20141;-68
2023/01/18 10:57:35;;;;;;;21.85;18.08;;;2.30;99.90;;;;;;5086090;28;20052;-68
2023/01/18 11:00:11;;;;;;;20.33;15.43;;;2.30;99.90;;;;;;5089610;28;20039;-68
2023/01/18 11:02:38;;;;;;;8.85;5.50;;;2.40;99.90;;;;;;5099254;28;20127;-68
2023/01/18 11:05:37;;;;;;;18.70;15.55;;;2.50;99.90;;;;;;5086914;28;20080;-68
2023/01/18 11:08:30;;;;;;;9.05;5.10;;;2.50;99.90;;;;;;5097147;28;20067;-68
2023/01/18 11:11:13;;;;;;;18.63;15.18;;;2.60;99.90;;;;;;5093061;28;20215;-69
2023/01/18 11:13:41;;;;;;;19.17;15.65;;;2.70;99.90;;;;;;5091328;28;20067;-68
2023/01/18 11:16:19;;;;;;;23.35;15.70;;;2.70;99.90;;;;;;5090074;28;20043;-68
2023/01/18 11:19:14;;;;;;;17.60;14.10;;;2.80;99.90;;;;;;5095494;28;20044;-69
2023/01/18 11:21:40;;;;;;;13.05;7.50;;;2.90;99.90;;;;;;5096050;28;20075;-69
2023/01/18 11:24:11;;;;;;;18.90;13.70;;;2.90;99.90;;;;;;5087288;28;20094;-69
2023/01/18 11:27:00;;;;;;;18.50;15.35;;;2.90;99.90;;;;;;5086551;28;20454;-69
2023/01/18 11:29:38;;;;;;;18.05;14.38;;;3.00;99.90;;;;;;5069628;28;20162;-69
2023/01/18 11:32:07;;;;;;;20.50;14.55;;;3.00;99.90;;;;;;5087266;28;20501;-69
2023/01/18 11:34:37;;;;;;;21.20;15.50;;;3.10;99.90;;;;;;5097289;28;20131;-69
2023/01/18 11:37:23;;;;;;;15.07;13.57;;;3.10;99.90;;;;;;5097573;28;20133;-69
2023/01/18 11:39:49;;;;;;;17.63;13.98;;;3.10;99.90;;;;;;5091427;28;20075;-69
2023/01/18 11:42:31;;;;;;;20.75;14.43;;;3.20;99.90;;;;;;5101757;28;20345;-69
2023/01/18 11:45:05;;;;;;;15.43;13.77;;;3.20;99.90;;;;;;5098577;28;20040;-69
2023/01/18 11:47:45;;;;;;;14.68;13.05;;;3.20;99.90;;;;;;5095752;28;20036;-69
2023/01/18 11:50:22;;;;;;;18.45;14.32;;;3.30;99.90;;;;;;5084929;28;20501;-68
2023/01/18 11:53:22;;;;;;;20.27;13.15;;;3.30;99.90;;;;;;5102397;28;20714;-69
2023/01/18 11:56:05;;;;;;;22.52;14.38;;;3.40;99.90;;;;;;5086972;28;20047;-69
2023/01/18 11:58:33;;;;;;;18.00;7.90;;;3.40;99.90;;;;;;5105071;28;20040;-69
2023/01/18 12:01:26;;;;;;;18.10;14.38;;;3.40;99.90;;;;;;5092819;28;20564;-69
2023/01/18 12:04:01;;;;;;;14.75;13.10;;;3.50;99.90;;;;;;5097448;28;20051;-69
2023/01/18 12:06:54;;;;;;;16.98;12.95;;;3.50;99.90;;;;;;5079118;28;20039;-70
2023/01/18 12:09:47;;;;;;;18.60;12.95;;;3.50;99.90;;;;;;5100697;28;20043;-70
2023/01/18 12:12:13;;;;;;;17.98;14.02;;;3.50;99.90;;;;;;5095928;28;20052;-69
2023/01/18 12:15:04;;;;;;;24.10;19.35;;;3.60;99.90;;;;;;5105548;28;20047;-69
2023/01/18 12:17:39;;;;;;;21.05;15.80;;;3.60;99.90;;;;;;5051740;28;20055;-69
2023/01/18 12:20:19;;;;;;;22.05;14.27;;;3.70;99.90;;;;;;5090983;28;20040;-69
2023/01/18 12:23:10;;;;;;;17.17;12.38;;;3.70;99.90;;;;;;5098362;28;20055;-69
2023/01/18 12:26:10;;;;;;;18.85;12.27;;;3.70;99.90;;;;;;5104267;28;20043;-69
2023/01/18 12:29:02;;;;;;;15.23;12.02;;;3.80;99.90;;;;;;5102738;28;20493;-69
2023/01/18 12:31:42;;;;;;;17.55;12.48;;;3.80;99.90;;;;;;5102265;28;20134;-69
2023/01/18 12:34:15;;;;;;;16.80;11.57;;;3.80;99.90;;;;;;5100077;28;20390;-69
2023/01/18 12:37:14;;;;;;;13.65;12.05;;;3.90;99.90;;;;;;5102298;28;20043;-69
2023/01/18 12:40:14;;;;;;;14.48;8.15;;;3.90;99.90;;;;;;5100201;28;20052;-69
2023/01/18 12:43:06;;;;;;;12.80;11.48;;;3.90;99.90;;;;;;5091122;28;20048;-69
2023/01/18 12:45:32;;;;;;;24.50;11.13;;;3.90;99.90;;;;;;5097949;28;20040;-69
2023/01/18 12:48:13;;;;;;;14.02;10.77;;;3.90;99.90;;;;;;5103824;28;20039;-69
2023/01/18 12:50:42;;;;;;;15.23;11.05;;;4.00;99.90;;;;;;5088654;28;20054;-69
2023/01/18 12:53:17;;;;;;;13.00;10.98;;;4.10;99.90;;;;;;5094557;28;20055;-69
2023/01/18 12:55:48;;;;;;;12.32;10.02;;;4.00;99.90;;;;;;5095431;28;20071;-70
2023/01/18 12:58:19;;;;;;;13.38;11.10;;;4.10;99.90;;;;;;5105306;28;20043;-70
2023/01/18 13:00:53;;;;;;;13.27;9.50;;;4.10;99.90;;;;;;5097662;28;20083;-70
2023/01/18 13:03:24;;;;;;;12.98;10.07;;;4.20;99.90;;;;;;5105975;28;20081;-69
2023/01/18 13:05:57;;;;;;;13.18;10.43;;;4.10;99.90;;;;;;5091045;28;20036;-69
2023/01/18 13:08:35;;;;;;;11.00;9.25;;;4.20;99.90;;;;;;5097895;28;20097;-69
2023/01/18 13:11:13;;;;;;;14.43;10.90;;;4.20;99.90;;;;;;5106894;28;20047;-69
2023/01/18 13:13:41;;;;;;;11.32;9.98;;;4.20;99.90;;;;;;5095391;28;20059;-70
2023/01/18 13:16:35;;;;;;;12.15;10.32;;;4.20;99.90;;;;;;5088767;28;20048;-69
2023/01/18 13:19:19;;;;;;;19.15;10.85;;;4.20;99.90;;;;;;5107036;28;20055;-69
2023/01/18 13:22:09;;;;;;;11.93;9.85;;;4.20;99.90;;;;;;5102839;28;20118;-69
2023/01/18 13:25:14;;;;;;;14.02;10.70;;;4.20;99.90;;;;;;5107284;28;20047;-69
2023/01/18 13:27:59;;;;;;;14.70;11.00;;;4.20;99.90;;;;;;5094376;28;20059;-70
2023/01/18 13:30:26;;;;;;;13.05;10.23;;;4.20;99.90;;;;;;5105782;28;20048;-69